Time;durP1;ratioP1;P1;durP2;ratioP2;P2;SDS_P1;SDS_P2;PMS_P1;PMS_P2;Temp;Humidity;BMP_temperature;BMP_pressure;BME280_temperature;BME280_humidity;BME280_pressure;Samples;Min_cycle;Max_cycle;Signal;HPM_P1;HPM_P2
2021/08/07 00:00:12;;;;;;;19.07;11.55;;;28.50;69.40;;;;;;1886932;76;21017;-55
2021/08/07 00:02:44;;;;;;;17.10;10.78;;;28.50;69.40;;;;;;1887072;76;21060;-55
2021/08/07 00:05:14;;;;;;;16.27;11.85;;;28.40;69.60;;;;;;1887024;76;21746;-55
2021/08/07 00:07:43;;;;;;;14.05;10.75;;;28.20;69.70;;;;;;1886965;76;21005;-56
2021/08/07 00:10:13;;;;;;;12.03;10.32;;;28.10;70.00;;;;;;1887011;74;21053;-56
2021/08/07 00:12:43;;;;;;;12.90;11.12;;;28.00;70.20;;;;;;1886896;76;21012;-55
2021/08/07 00:15:13;;;;;;;15.40;10.78;;;27.90;70.70;;;;;;1886920;76;20977;-55
2021/08/07 00:17:43;;;;;;;15.68;11.08;;;27.90;70.40;;;;;;1886985;76;21000;-55
2021/08/07 00:20:12;;;;;;;13.00;11.08;;;27.90;70.50;;;;;;1886894;76;21058;-55
2021/08/07 00:22:42;;;;;;;14.90;11.25;;;27.80;70.50;;;;;;1887035;76;21028;-55
2021/08/07 00:25:12;;;;;;;13.05;11.70;;;27.70;70.60;;;;;;1886932;76;21048;-55
2021/08/07 00:27:41;;;;;;;14.13;10.40;;;27.70;70.90;;;;;;1887020;76;20985;-55
2021/08/07 00:30:12;;;;;;;13.90;10.43;;;27.50;71.00;;;;;;1886907;76;21004;-55
2021/08/07 00:32:42;;;;;;;14.38;10.18;;;27.50;71.30;;;;;;1886832;76;21008;-55
2021/08/07 00:35:13;;;;;;;13.83;10.13;;;27.50;71.30;;;;;;1886851;76;21122;-55
2021/08/07 00:37:43;;;;;;;11.15;10.10;;;27.50;71.30;;;;;;1887095;76;21028;-55
2021/08/07 00:40:15;;;;;;;14.28;12.73;;;27.50;71.20;;;;;;1886887;76;20985;-55
2021/08/07 00:42:44;;;;;;;14.65;10.40;;;27.60;71.20;;;;;;1886960;76;21083;-55
2021/08/07 00:45:15;;;;;;;11.28;10.15;;;27.50;71.70;;;;;;1886481;76;21553;-56
2021/08/07 00:47:46;;;;;;;13.80;10.78;;;27.50;71.20;;;;;;1886940;76;21098;-55
2021/08/07 00:50:17;;;;;;;18.32;9.98;;;27.50;71.20;;;;;;1886933;76;21012;-55
2021/08/07 00:52:47;;;;;;;15.68;11.08;;;27.50;71.10;;;;;;1886970;76;21020;-55
2021/08/07 00:55:18;;;;;;;36.48;12.63;;;27.60;71.20;;;;;;1886902;76;21134;-55
2021/08/07 00:57:49;;;;;;;12.93;10.45;;;27.50;71.20;;;;;;1886935;76;21200;-55
2021/08/07 01:00:20;;;;;;;12.80;10.63;;;27.50;71.30;;;;;;1886860;76;21070;-55
2021/08/07 01:02:55;;;;;;;12.05;10.82;;;27.50;71.30;;;;;;1886247;76;21090;-55
2021/08/07 01:05:49;;;;;;;12.10;10.80;;;27.50;71.30;;;;;;1880382;76;21129;-55
2021/08/07 01:08:21;;;;;;;12.82;11.50;;;27.50;71.40;;;;;;1885135;76;21048;-55
2021/08/07 01:11:06;;;;;;;12.70;10.65;;;27.40;71.50;;;;;;1886789;74;21139;-55
2021/08/07 01:13:51;;;;;;;13.05;10.60;;;27.40;71.70;;;;;;1885656;76;21454;-55
2021/08/07 01:16:28;;;;;;;12.03;10.80;;;27.40;71.80;;;;;;1886761;76;21106;-55
2021/08/07 01:19:00;;;;;;;16.82;12.00;;;27.40;71.70;;;;;;1886617;76;21126;-55
2021/08/07 01:21:39;;;;;;;12.95;11.15;;;27.40;71.80;;;;;;1886986;76;21016;-55
2021/08/07 01:24:16;;;;;;;12.40;11.12;;;27.40;71.80;;;;;;1886773;76;21128;-55
2021/08/07 01:27:02;;;;;;;14.78;10.55;;;27.30;71.90;;;;;;1886772;76;21029;-55
2021/08/07 01:29:31;;;;;;;14.53;10.60;;;27.40;72.00;;;;;;1886784;76;21032;-56
2021/08/07 01:32:02;;;;;;;11.50;10.03;;;27.40;72.00;;;;;;1886818;76;21071;-55
2021/08/07 01:34:33;;;;;;;12.58;10.08;;;27.40;71.90;;;;;;1886800;76;21034;-55
2021/08/07 01:37:04;;;;;;;20.52;11.65;;;27.40;71.80;;;;;;1887033;76;21020;-55
2021/08/07 01:39:45;;;;;;;13.32;11.45;;;27.50;71.80;;;;;;1886805;76;21040;-55
2021/08/07 01:42:16;;;;;;;12.73;11.28;;;27.50;71.70;;;;;;1886984;76;21487;-55
2021/08/07 01:44:46;;;;;;;17.17;12.63;;;27.50;71.70;;;;;;1887054;76;21040;-55
2021/08/07 01:47:45;;;;;;;16.07;10.98;;;27.50;71.70;;;;;;1887012;76;21036;-55
2021/08/07 01:50:22;;;;;;;12.80;10.90;;;27.40;71.80;;;;;;1886975;76;21011;-55
2021/08/07 01:52:53;;;;;;;18.75;10.50;;;27.40;72.00;;;;;;1883364;76;21086;-55
2021/08/07 01:55:25;;;;;;;12.68;10.48;;;27.30;72.70;;;;;;1887152;76;21083;-56
2021/08/07 01:58:01;;;;;;;16.17;10.72;;;27.40;72.00;;;;;;1887012;76;21059;-55
2021/08/07 02:00:32;;;;;;;11.22;10.05;;;27.50;72.10;;;;;;1886531;76;21013;-55
2021/08/07 02:03:02;;;;;;;13.18;10.82;;;27.50;71.80;;;;;;1887157;76;21017;-55
2021/08/07 02:05:34;;;;;;;19.85;11.65;;;27.50;71.80;;;;;;1887143;76;21001;-55
2021/08/07 02:08:05;;;;;;;13.38;12.03;;;27.50;71.70;;;;;;1887012;76;20977;-55
2021/08/07 02:10:37;;;;;;;13.93;12.47;;;27.60;71.70;;;;;;1886673;75;21116;-55
2021/08/07 02:13:08;;;;;;;12.10;10.35;;;27.50;71.60;;;;;;1887037;76;21094;-55
2021/08/07 02:15:38;;;;;;;12.80;11.08;;;27.50;72.40;;;;;;1887181;76;20993;-55
2021/08/07 02:18:10;;;;;;;16.23;11.83;;;27.40;71.80;;;;;;1886870;76;21089;-55
2021/08/07 02:20:41;;;;;;;12.18;11.08;;;27.30;72.00;;;;;;1887024;76;21561;-55
2021/08/07 02:23:12;;;;;;;12.63;10.90;;;27.20;72.10;;;;;;1886962;76;21078;-56
2021/08/07 02:25:44;;;;;;;15.28;11.00;;;27.20;72.50;;;;;;1887023;76;21094;-55
2021/08/07 02:28:15;;;;;;;11.93;10.58;;;27.20;72.60;;;;;;1886602;76;21135;-55
2021/08/07 02:30:45;;;;;;;12.13;10.30;;;27.20;72.60;;;;;;1886943;76;21013;-55
2021/08/07 02:33:17;;;;;;;15.55;11.57;;;27.20;72.60;;;;;;1886942;76;21023;-55
2021/08/07 02:35:47;;;;;;;13.35;11.83;;;27.20;72.50;;;;;;1886958;76;21082;-55
2021/08/07 02:38:18;;;;;;;12.03;10.93;;;27.20;72.50;;;;;;1887009;76;21079;-55
2021/08/07 02:40:47;;;;;;;13.38;10.48;;;27.10;72.70;;;;;;1887036;76;21001;-55
2021/08/07 02:43:18;;;;;;;16.20;10.55;;;27.10;72.90;;;;;;1886963;76;21114;-55
2021/08/07 02:45:50;;;;;;;12.50;10.00;;;27.10;72.90;;;;;;1887015;76;21013;-55
2021/08/07 02:48:22;;;;;;;10.82;9.80;;;27.10;72.90;;;;;;1886855;76;21044;-55
2021/08/07 02:50:52;;;;;;;16.07;11.50;;;27.10;72.80;;;;;;1886950;76;21009;-55
2021/08/07 02:53:21;;;;;;;15.20;12.90;;;27.10;72.80;;;;;;1886898;76;21083;-55
2021/08/07 02:55:52;;;;;;;13.53;11.12;;;27.10;72.90;;;;;;1886946;76;21025;-55
2021/08/07 02:58:23;;;;;;;13.22;11.50;;;27.10;72.90;;;;;;1886728;76;21040;-55
2021/08/07 03:00:54;;;;;;;14.83;11.70;;;27.10;72.90;;;;;;1887037;76;21004;-55
2021/08/07 03:03:24;;;;;;;22.42;12.75;;;27.00;73.20;;;;;;1886976;76;21063;-55
2021/08/07 03:05:54;;;;;;;14.45;10.93;;;26.90;73.20;;;;;;1886982;76;21076;-55
2021/08/07 03:08:23;;;;;;;13.10;11.50;;;26.90;73.40;;;;;;1886887;76;21024;-55
2021/08/07 03:10:54;;;;;;;12.93;11.12;;;26.90;73.50;;;;;;1886996;75;21106;-55
2021/08/07 03:13:25;;;;;;;13.08;10.78;;;26.90;73.60;;;;;;1886829;76;21032;-55
2021/08/07 03:15:54;;;;;;;18.57;11.68;;;26.90;73.60;;;;;;1886948;76;21008;-55
2021/08/07 03:18:25;;;;;;;20.55;11.70;;;27.00;73.50;;;;;;1886809;76;21010;-55
2021/08/07 03:20:57;;;;;;;15.25;11.78;;;27.00;73.50;;;;;;1886998;76;21005;-55
2021/08/07 03:23:27;;;;;;;12.78;11.33;;;26.90;73.50;;;;;;1886506;76;21131;-55
2021/08/07 03:25:58;;;;;;;14.47;11.20;;;26.90;73.90;;;;;;1886855;76;21150;-55
2021/08/07 03:28:28;;;;;;;13.38;11.22;;;26.80;73.90;;;;;;1886998;76;21012;-55
2021/08/07 03:30:58;;;;;;;32.55;13.28;;;26.80;74.00;;;;;;1886913;76;21012;-55
2021/08/07 03:33:29;;;;;;;18.42;12.28;;;26.80;73.90;;;;;;1886596;76;21019;-55
2021/08/07 03:35:58;;;;;;;17.05;12.78;;;26.80;73.90;;;;;;1886804;76;20985;-55
2021/08/07 03:38:28;;;;;;;17.50;11.43;;;26.80;74.10;;;;;;1886941;76;21000;-55
2021/08/07 03:40:58;;;;;;;14.10;12.20;;;26.80;74.10;;;;;;1886985;76;21012;-55
2021/08/07 03:43:29;;;;;;;12.15;10.70;;;26.70;74.10;;;;;;1886960;76;21078;-55
2021/08/07 03:46:00;;;;;;;20.45;13.10;;;26.80;74.30;;;;;;1886849;76;21084;-55
2021/08/07 03:48:31;;;;;;;22.05;12.85;;;26.80;74.20;;;;;;1886706;76;21077;-55
2021/08/07 03:51:01;;;;;;;16.62;12.63;;;26.90;74.10;;;;;;1887050;76;21071;-55
2021/08/07 03:53:34;;;;;;;11.50;10.10;;;26.90;73.90;;;;;;1886679;76;21513;-55
2021/08/07 03:56:04;;;;;;;15.72;12.53;;;26.90;73.90;;;;;;1886955;76;20985;-55
2021/08/07 03:58:34;;;;;;;16.02;12.73;;;27.00;73.70;;;;;;1886893;76;21028;-55
2021/08/07 04:01:04;;;;;;;14.85;12.40;;;27.00;73.50;;;;;;1886452;76;21114;-55
2021/08/07 04:03:35;;;;;;;13.83;11.48;;;27.00;73.50;;;;;;1886937;76;21450;-55
2021/08/07 04:06:05;;;;;;;15.98;11.75;;;27.00;73.70;;;;;;1887056;76;21074;-55
2021/08/07 04:08:36;;;;;;;15.70;11.85;;;27.00;73.60;;;;;;1886825;76;21173;-55
2021/08/07 04:11:06;;;;;;;13.62;12.23;;;27.00;73.60;;;;;;1886934;76;21036;-55
2021/08/07 04:13:37;;;;;;;20.85;12.30;;;27.00;73.60;;;;;;1886739;76;21122;-55
2021/08/07 04:16:07;;;;;;;19.62;13.10;;;27.00;73.70;;;;;;1886992;76;21111;-55
2021/08/07 04:18:36;;;;;;;15.30;11.70;;;27.10;73.80;;;;;;1886985;76;21059;-55
2021/08/07 04:21:06;;;;;;;19.30;12.40;;;27.10;73.80;;;;;;1886893;76;21071;-55
2021/08/07 04:23:36;;;;;;;15.98;12.03;;;27.20;73.70;;;;;;1885837;76;21012;-55
2021/08/07 04:26:05;;;;;;;13.10;11.60;;;27.20;73.70;;;;;;1886774;76;21000;-55
2021/08/07 04:28:34;;;;;;;14.73;11.28;;;27.20;73.60;;;;;;1886849;76;20988;-55
2021/08/07 04:31:06;;;;;;;16.55;11.03;;;27.20;73.40;;;;;;1886887;76;20989;-55
2021/08/07 04:33:36;;;;;;;12.63;11.35;;;27.20;73.40;;;;;;1887007;76;20988;-55
2021/08/07 04:36:06;;;;;;;12.90;11.12;;;27.30;73.30;;;;;;1886901;76;21009;-55
2021/08/07 04:38:35;;;;;;;14.58;11.28;;;27.30;73.20;;;;;;1887005;76;21126;-55
2021/08/07 04:41:05;;;;;;;13.83;11.30;;;27.40;73.00;;;;;;1886972;76;21107;-55
2021/08/07 04:43:36;;;;;;;15.32;11.35;;;27.40;72.80;;;;;;1886708;76;21090;-55
2021/08/07 04:46:05;;;;;;;14.53;12.58;;;27.50;72.80;;;;;;1886886;76;21024;-55
2021/08/07 04:48:35;;;;;;;17.75;12.03;;;27.50;72.80;;;;;;1886877;76;21009;-55
2021/08/07 04:51:09;;;;;;;17.57;12.75;;;27.50;72.90;;;;;;1886722;76;21183;-55
2021/08/07 04:53:40;;;;;;;15.72;12.85;;;27.40;73.00;;;;;;1886683;76;21083;-55
2021/08/07 04:56:11;;;;;;;20.90;13.53;;;27.40;73.10;;;;;;1886530;76;21049;-55
2021/08/07 04:58:40;;;;;;;19.95;13.38;;;27.50;73.30;;;;;;1886801;76;20992;-55
2021/08/07 05:01:10;;;;;;;31.02;13.72;;;27.50;73.30;;;;;;1886827;76;21008;-55
2021/08/07 05:03:40;;;;;;;24.65;14.20;;;27.60;73.20;;;;;;1886744;76;21094;-55
2021/08/07 05:06:11;;;;;;;26.12;15.50;;;27.70;73.00;;;;;;1886865;76;21028;-55
2021/08/07 05:08:41;;;;;;;25.65;15.88;;;27.80;72.90;;;;;;1886783;76;21008;-55
2021/08/07 05:11:10;;;;;;;25.97;15.20;;;27.90;72.80;;;;;;1886848;76;21052;-55
2021/08/07 05:13:40;;;;;;;24.72;17.48;;;28.00;72.80;;;;;;1893199;76;21131;-55
2021/08/07 05:16:10;;;;;;;19.17;16.07;;;28.10;72.80;;;;;;1893515;76;21086;-55
2021/08/07 05:18:40;;;;;;;22.15;16.85;;;28.10;72.80;;;;;;1893500;76;20988;-55
2021/08/07 05:21:10;;;;;;;19.98;14.87;;;28.20;72.80;;;;;;1893609;76;21164;-55
2021/08/07 05:23:41;;;;;;;23.55;15.40;;;28.20;72.90;;;;;;1893303;76;21092;-55
2021/08/07 05:26:10;;;;;;;23.42;15.32;;;28.30;73.00;;;;;;1893509;76;21128;-55
2021/08/07 05:28:41;;;;;;;30.35;14.90;;;28.30;73.30;;;;;;1893331;76;21090;-55
2021/08/07 05:31:11;;;;;;;17.37;13.00;;;28.40;73.60;;;;;;1893514;76;21113;-55
2021/08/07 05:33:40;;;;;;;19.20;13.30;;;28.40;73.80;;;;;;1893317;76;21074;-55
2021/08/07 05:36:10;;;;;;;19.60;13.98;;;28.50;74.00;;;;;;1893487;76;21086;-55
2021/08/07 05:38:39;;;;;;;25.75;18.85;;;28.60;73.90;;;;;;1893446;76;21012;-55
2021/08/07 05:41:08;;;;;;;15.50;12.18;;;28.70;73.80;;;;;;1893524;76;21016;-55
2021/08/07 05:43:39;;;;;;;23.75;13.98;;;28.80;73.50;;;;;;1893256;76;20993;-55
2021/08/07 05:46:08;;;;;;;20.23;15.95;;;29.00;73.30;;;;;;1893342;76;21074;-55
2021/08/07 05:48:38;;;;;;;29.45;15.58;;;29.10;73.10;;;;;;1893275;76;21040;-55
2021/08/07 05:51:08;;;;;;;24.77;12.80;;;29.20;73.00;;;;;;1893188;76;21016;-55
2021/08/07 05:53:37;;;;;;;18.57;12.63;;;29.30;72.70;;;;;;1893214;76;21039;-55
2021/08/07 05:56:07;;;;;;;17.35;12.18;;;29.40;72.70;;;;;;1893504;76;21044;-55
2021/08/07 05:58:38;;;;;;;15.80;14.18;;;29.50;72.60;;;;;;1893448;76;21077;-55
2021/08/07 06:01:08;;;;;;;21.70;11.40;;;29.60;72.30;;;;;;1893592;76;21008;-55
2021/08/07 06:03:37;;;;;;;22.90;11.45;;;29.70;71.50;;;;;;1893256;76;21082;-55
2021/08/07 06:06:07;;;;;;;24.72;12.98;;;29.80;71.10;;;;;;1893239;76;21082;-56
2021/08/07 06:08:36;;;;;;;14.25;11.35;;;29.90;70.70;;;;;;1893217;76;21091;-55
2021/08/07 06:11:06;;;;;;;21.65;12.55;;;29.90;70.50;;;;;;1893360;76;21063;-55
2021/08/07 06:13:35;;;;;;;20.82;13.13;;;29.90;70.40;;;;;;1888823;75;21028;-55
2021/08/07 06:16:05;;;;;;;33.33;11.85;;;30.00;70.10;;;;;;1887036;76;21058;-55
2021/08/07 06:18:35;;;;;;;15.88;10.45;;;30.00;70.00;;;;;;1886800;76;21541;-55
2021/08/07 06:21:04;;;;;;;15.98;12.20;;;30.10;69.80;;;;;;1886960;76;21094;-55
2021/08/07 06:23:34;;;;;;;19.07;12.47;;;30.10;69.80;;;;;;1886852;76;21008;-55
2021/08/07 06:26:04;;;;;;;17.77;11.33;;;30.10;69.60;;;;;;1886904;76;21008;-55
2021/08/07 06:28:34;;;;;;;16.65;12.10;;;30.20;69.50;;;;;;1886885;76;21008;-55
2021/08/07 06:31:06;;;;;;;17.05;10.38;;;30.20;69.50;;;;;;1886535;76;21033;-55
2021/08/07 06:33:37;;;;;;;15.30;9.98;;;30.20;69.00;;;;;;1886741;76;21048;-56
2021/08/07 06:36:07;;;;;;;14.05;10.23;;;30.30;68.50;;;;;;1886987;76;21009;-56
2021/08/07 06:38:37;;;;;;;15.43;10.53;;;30.30;68.30;;;;;;1886836;76;21124;-55
2021/08/07 06:41:06;;;;;;;12.90;11.25;;;30.30;68.10;;;;;;1886874;76;21009;-55
2021/08/07 06:43:37;;;;;;;13.90;9.73;;;30.40;68.00;;;;;;1886522;76;21071;-56
2021/08/07 06:46:11;;;;;;;15.18;10.20;;;30.50;68.00;;;;;;1885437;76;21044;-55
2021/08/07 06:48:41;;;;;;;14.98;11.18;;;30.60;67.90;;;;;;1886807;76;21024;-56
2021/08/07 06:51:11;;;;;;;16.17;10.93;;;30.70;67.40;;;;;;1886815;76;21040;-55
2021/08/07 06:53:41;;;;;;;17.27;11.25;;;30.70;67.20;;;;;;1886933;76;21008;-55
2021/08/07 06:56:11;;;;;;;14.68;10.35;;;30.80;66.90;;;;;;1886858;76;21016;-55
2021/08/07 06:58:40;;;;;;;18.92;10.98;;;30.90;66.90;;;;;;1886830;76;21012;-55
2021/08/07 07:01:10;;;;;;;13.83;10.38;;;31.00;66.80;;;;;;1886883;76;21013;-56
2021/08/07 07:03:40;;;;;;;15.23;10.65;;;31.10;66.70;;;;;;1886952;76;21020;-55
2021/08/07 07:06:10;;;;;;;16.35;10.55;;;31.20;66.30;;;;;;1886822;76;21007;-56
2021/08/07 07:08:40;;;;;;;26.68;11.20;;;31.20;66.00;;;;;;1886904;76;21004;-56
2021/08/07 07:11:09;;;;;;;17.27;10.45;;;31.30;65.80;;;;;;1886917;76;21012;-55
2021/08/07 07:13:39;;;;;;;16.05;9.35;;;31.40;65.50;;;;;;1886849;75;21111;-56
2021/08/07 07:16:09;;;;;;;14.80;9.28;;;31.50;65.40;;;;;;1859345;76;20996;-56
2021/08/07 07:18:38;;;;;;;13.05;9.23;;;31.60;64.90;;;;;;1886817;76;21004;-53
2021/08/07 07:21:09;;;;;;;27.60;14.15;;;31.70;64.50;;;;;;1886780;76;21075;-52
2021/08/07 07:23:39;;;;;;;13.28;8.33;;;31.90;63.90;;;;;;1886743;76;21044;-52
2021/08/07 07:26:08;;;;;;;14.20;10.65;;;32.10;62.50;;;;;;1886770;76;21016;-51
2021/08/07 07:28:38;;;;;;;9.20;6.60;;;32.20;61.10;;;;;;1886812;76;20993;-53
2021/08/07 07:31:08;;;;;;;13.48;7.70;;;32.30;59.60;;;;;;1886810;76;20992;-53
2021/08/07 07:33:38;;;;;;;12.47;7.00;;;32.50;58.80;;;;;;1886726;76;21060;-52
2021/08/07 07:36:07;;;;;;;10.75;7.25;;;32.60;58.70;;;;;;1886880;76;21047;-53
2021/08/07 07:38:37;;;;;;;11.88;6.70;;;32.80;58.00;;;;;;1886851;76;21067;-53
2021/08/07 07:41:06;;;;;;;10.60;6.62;;;32.90;56.50;;;;;;1886846;76;21078;-53
2021/08/07 07:43:36;;;;;;;8.70;5.87;;;33.00;55.60;;;;;;1886803;76;21071;-51
2021/08/07 07:46:05;;;;;;;26.17;10.08;;;33.10;55.60;;;;;;1886864;76;21008;-52
2021/08/07 07:48:35;;;;;;;18.62;10.98;;;33.10;54.30;;;;;;1886869;76;21082;-52
2021/08/07 07:51:05;;;;;;;14.23;7.08;;;33.20;54.40;;;;;;1886906;76;21008;-52
2021/08/07 07:53:35;;;;;;;6.78;5.83;;;33.20;53.50;;;;;;1886738;76;21102;-52
2021/08/07 07:56:05;;;;;;;12.28;6.53;;;33.20;53.50;;;;;;1886826;76;20981;-52
2021/08/07 07:58:35;;;;;;;17.57;7.85;;;33.20;53.40;;;;;;1886704;76;21011;-51
2021/08/07 08:01:04;;;;;;;17.45;11.65;;;33.30;53.30;;;;;;1886702;76;21012;-52
2021/08/07 08:03:34;;;;;;;14.80;8.00;;;33.40;53.30;;;;;;1886703;76;21012;-52
2021/08/07 08:06:06;;;;;;;14.00;7.53;;;33.50;53.20;;;;;;1886904;76;21001;-52
2021/08/07 08:08:36;;;;;;;13.05;7.33;;;33.60;53.20;;;;;;1886784;76;21042;-52
2021/08/07 08:11:06;;;;;;;9.90;6.97;;;33.60;53.20;;;;;;1886741;76;21082;-51
2021/08/07 08:13:35;;;;;;;8.18;6.03;;;33.80;53.10;;;;;;1886716;74;21040;-52
2021/08/07 08:16:05;;;;;;;9.38;6.25;;;33.80;53.00;;;;;;1886804;76;20984;-53
2021/08/07 08:18:36;;;;;;;11.60;6.25;;;33.90;52.70;;;;;;1886791;76;21012;-53
2021/08/07 08:21:06;;;;;;;15.58;5.97;;;34.10;52.10;;;;;;1886815;76;20981;-53
2021/08/07 08:23:36;;;;;;;9.43;6.72;;;34.10;51.80;;;;;;1886794;76;21071;-52
2021/08/07 08:26:05;;;;;;;12.03;6.90;;;34.20;51.60;;;;;;1886793;76;21028;-53
2021/08/07 08:28:35;;;;;;;15.20;7.15;;;34.30;51.30;;;;;;1886801;76;21129;-52
2021/08/07 08:31:04;;;;;;;12.45;6.05;;;34.40;51.30;;;;;;1886786;76;21008;-53
2021/08/07 08:33:34;;;;;;;13.22;8.75;;;34.50;51.10;;;;;;1886734;76;21025;-52
2021/08/07 08:36:05;;;;;;;11.50;6.37;;;34.50;51.40;;;;;;1886685;76;21067;-51
2021/08/07 08:38:34;;;;;;;9.10;6.72;;;34.60;51.00;;;;;;1886756;76;21017;-53
2021/08/07 08:41:03;;;;;;;12.15;6.50;;;34.70;51.00;;;;;;1886605;76;21005;-52
2021/08/07 08:43:34;;;;;;;14.00;6.67;;;34.80;50.80;;;;;;1886651;76;21028;-53
2021/08/07 08:46:03;;;;;;;12.33;6.70;;;34.80;50.10;;;;;;1886889;76;20981;-53
2021/08/07 08:48:35;;;;;;;7.00;6.10;;;34.90;50.30;;;;;;1886731;76;21024;-53
2021/08/07 08:51:08;;;;;;;10.05;6.83;;;35.00;50.50;;;;;;1886816;76;21463;-52
2021/08/07 08:53:41;;;;;;;9.00;5.90;;;35.00;50.30;;;;;;1887018;76;21435;-52
2021/08/07 08:56:11;;;;;;;10.55;6.78;;;35.00;50.20;;;;;;1887048;76;21106;-53
2021/08/07 08:58:41;;;;;;;9.13;5.42;;;35.10;50.10;;;;;;1886881;76;20988;-51
2021/08/07 09:01:10;;;;;;;8.85;5.87;;;35.10;49.50;;;;;;1887113;76;21012;-52
2021/08/07 09:03:40;;;;;;;11.22;6.72;;;35.10;49.50;;;;;;1887094;76;21082;-53
2021/08/07 09:06:11;;;;;;;15.23;6.87;;;35.20;49.40;;;;;;1886928;76;20980;-52
2021/08/07 09:08:59;;;;;;;12.70;5.70;;;35.20;49.40;;;;;;1886967;76;20996;-52
2021/08/07 09:11:29;;;;;;;5.83;4.83;;;35.30;48.60;;;;;;1885730;76;21075;-52
2021/08/07 09:14:21;;;;;;;9.80;5.12;;;35.30;47.40;;;;;;1886629;76;21036;-52
2021/08/07 09:17:08;;;;;;;11.28;5.30;;;35.40;46.20;;;;;;1886790;76;21075;-52
2021/08/07 09:19:45;;;;;;;6.60;4.53;;;35.50;46.10;;;;;;1885744;76;21028;-52
2021/08/07 09:22:24;;;;;;;7.37;5.35;;;35.60;45.70;;;;;;1886692;76;21057;-53
2021/08/07 09:25:12;;;;;;;9.78;4.08;;;35.70;45.60;;;;;;1886931;76;21004;-52
2021/08/07 09:27:51;;;;;;;27.30;4.72;;;35.70;42.50;;;;;;1886635;76;21177;-52
2021/08/07 09:30:25;;;;;;;13.93;4.20;;;35.70;41.20;;;;;;1886861;76;21009;-53
2021/08/07 09:33:12;;;;;;;16.45;4.45;;;35.80;39.20;;;;;;1886498;76;21063;-53
2021/08/07 09:35:43;;;;;;;13.25;4.78;;;35.80;39.50;;;;;;1885946;76;21099;-53
2021/08/07 09:38:23;;;;;;;8.15;4.78;;;35.80;39.00;;;;;;1886942;76;21074;-53
2021/08/07 09:41:09;;;;;;;11.75;4.72;;;35.90;38.50;;;;;;1886520;76;21108;-53
2021/08/07 09:43:48;;;;;;;13.75;4.55;;;36.00;38.60;;;;;;1886509;76;21127;-52
2021/08/07 09:46:22;;;;;;;7.42;4.30;;;36.10;38.80;;;;;;1887059;76;21078;-53
2021/08/07 09:48:55;;;;;;;9.98;5.03;;;36.20;38.90;;;;;;1886076;76;21467;-53
2021/08/07 09:51:32;;;;;;;7.37;4.40;;;36.30;38.40;;;;;;1887101;76;21090;-52
2021/08/07 09:54:16;;;;;;;8.33;4.65;;;36.40;39.00;;;;;;1886688;76;21076;-53
2021/08/07 09:56:55;;;;;;;9.38;4.75;;;36.50;38.60;;;;;;1886319;76;21134;-52
2021/08/07 09:59:31;;;;;;;7.20;4.00;;;36.50;38.00;;;;;;1886279;76;21065;-52
2021/08/07 10:02:02;;;;;;;10.98;4.30;;;36.50;38.80;;;;;;1887013;76;21012;-53
2021/08/07 10:04:40;;;;;;;9.13;4.60;;;36.40;39.70;;;;;;1884162;76;21130;-53
2021/08/07 10:07:11;;;;;;;5.10;4.08;;;36.40;40.20;;;;;;1886353;76;21071;-53
2021/08/07 10:09:42;;;;;;;5.87;4.08;;;36.20;40.20;;;;;;1853797;76;21001;-53
2021/08/07 10:12:15;;;;;;;6.60;4.35;;;36.20;40.50;;;;;;1884971;76;21031;-52
2021/08/07 10:14:55;;;;;;;7.60;4.60;;;36.10;40.70;;;;;;1888048;74;21065;-53
2021/08/07 10:17:26;;;;;;;5.92;3.90;;;36.00;41.00;;;;;;1893538;76;21066;-52
2021/08/07 10:19:56;;;;;;;7.47;4.80;;;35.90;41.20;;;;;;1893529;76;21071;-53
2021/08/07 10:22:27;;;;;;;7.70;4.53;;;35.80;41.30;;;;;;1893426;76;21067;-53
2021/08/07 10:25:00;;;;;;;20.90;6.30;;;35.70;41.60;;;;;;1892887;76;20988;-53
2021/08/07 10:27:32;;;;;;;7.33;4.83;;;35.60;41.80;;;;;;1893386;76;21008;-53
2021/08/07 10:30:04;;;;;;;7.87;4.22;;;35.50;42.20;;;;;;1893593;76;21036;-53
2021/08/07 10:32:38;;;;;;;6.63;3.70;;;35.50;42.40;;;;;;1893585;76;21087;-53
2021/08/07 10:35:10;;;;;;;12.40;4.62;;;35.50;42.50;;;;;;1893536;76;21505;-52
2021/08/07 10:37:40;;;;;;;6.72;4.35;;;35.50;42.80;;;;;;1893447;76;21067;-53
2021/08/07 10:40:11;;;;;;;11.25;5.20;;;35.40;43.20;;;;;;1893538;76;21055;-53
2021/08/07 10:42:41;;;;;;;11.63;5.47;;;35.50;43.60;;;;;;1893432;76;21082;-52
2021/08/07 10:45:13;;;;;;;15.08;5.60;;;35.50;43.80;;;;;;1893363;76;21020;-53
2021/08/07 10:47:45;;;;;;;5.92;4.22;;;35.50;43.80;;;;;;1893399;76;21024;-53
2021/08/07 10:50:34;;;;;;;8.45;4.78;;;35.50;43.60;;;;;;1893280;76;21032;-54
2021/08/07 10:53:26;;;;;;;10.63;4.70;;;35.50;43.80;;;;;;1892694;76;21035;-53
2021/08/07 10:55:57;;;;;;;7.22;4.50;;;35.50;44.10;;;;;;1883415;75;21021;-53
2021/08/07 10:58:49;;;;;;;12.58;4.90;;;35.40;44.10;;;;;;1893299;76;20988;-53
2021/08/07 11:01:27;;;;;;;7.72;4.28;;;35.30;44.10;;;;;;1893344;76;21032;-54
2021/08/07 11:04:07;;;;;;;8.25;4.47;;;35.30;44.50;;;;;;1893265;76;21020;-54
2021/08/07 11:06:47;;;;;;;8.18;4.30;;;35.30;44.60;;;;;;1893341;76;21081;-53
2021/08/07 11:09:35;;;;;;;13.58;5.83;;;35.40;44.50;;;;;;1893406;76;21074;-54
2021/08/07 11:12:13;;;;;;;4.85;4.37;;;35.40;44.20;;;;;;1893317;76;21094;-54
2021/08/07 11:14:47;;;;;;;10.50;5.10;;;35.40;44.00;;;;;;1888399;76;21028;-54
2021/08/07 11:17:18;;;;;;;8.33;4.40;;;35.40;44.00;;;;;;1893674;76;21012;-55
2021/08/07 11:20:00;;;;;;;9.35;4.30;;;35.40;44.00;;;;;;1893410;76;21073;-55
2021/08/07 11:22:41;;;;;;;7.72;4.47;;;35.40;44.40;;;;;;1893042;76;21097;-54
2021/08/07 11:25:20;;;;;;;14.43;4.72;;;35.40;44.60;;;;;;1893635;76;21024;-54
2021/08/07 11:30:39;;;;;;;10.53;5.58;;;35.40;44.30;;;;;;1893464;76;20996;-54
2021/08/07 11:33:15;;;;;;;7.20;4.33;;;35.40;44.50;;;;;;1892940;76;21086;-54
2021/08/07 11:35:49;;;;;;;14.18;8.63;;;35.40;44.80;;;;;;1893379;76;21536;-55
2021/08/07 11:38:23;;;;;;;10.43;4.63;;;35.40;45.10;;;;;;1893689;76;21087;-54
2021/08/07 11:40:57;;;;;;;10.08;5.40;;;35.30;45.20;;;;;;1893305;76;21012;-54
2021/08/07 11:43:29;;;;;;;11.63;5.08;;;35.30;45.20;;;;;;1893354;76;21015;-54
2021/08/07 11:46:01;;;;;;;11.97;4.80;;;35.40;45.00;;;;;;1893368;76;21040;-54
2021/08/07 11:48:32;;;;;;;6.62;4.30;;;35.30;44.70;;;;;;1893409;76;21369;-54
2021/08/07 11:51:04;;;;;;;9.95;4.75;;;35.40;44.40;;;;;;1893400;76;21016;-54
2021/08/07 11:53:36;;;;;;;11.45;4.67;;;35.30;44.40;;;;;;1893451;76;21059;-54
2021/08/07 11:56:17;;;;;;;5.65;4.47;;;35.30;44.50;;;;;;1893215;76;20972;-54
2021/08/07 11:58:51;;;;;;;10.58;5.12;;;35.40;44.50;;;;;;1893309;76;21000;-54
2021/08/07 12:01:22;;;;;;;11.78;4.80;;;35.30;44.60;;;;;;1893311;76;21044;-53
2021/08/07 12:03:53;;;;;;;9.55;4.62;;;35.40;44.80;;;;;;1893389;76;21502;-54
2021/08/07 12:06:37;;;;;;;17.12;5.42;;;35.30;44.90;;;;;;1893491;76;21016;-53
2021/08/07 12:09:12;;;;;;;9.18;5.87;;;35.40;45.40;;;;;;1893551;76;21020;-53
2021/08/07 12:11:42;;;;;;;13.48;5.25;;;35.30;45.50;;;;;;1893104;76;21043;-54
2021/08/07 12:14:13;;;;;;;15.65;6.15;;;35.30;45.50;;;;;;1893435;76;21059;-54
2021/08/07 12:16:43;;;;;;;14.58;5.83;;;35.20;45.60;;;;;;1889597;76;21098;-53
2021/08/07 12:19:24;;;;;;;13.80;8.13;;;35.20;45.90;;;;;;1886904;76;21508;-54
2021/08/07 12:21:55;;;;;;;7.37;4.97;;;35.20;46.10;;;;;;1886797;76;21016;-51
2021/08/07 12:24:25;;;;;;;5.35;4.50;;;35.20;46.10;;;;;;1886928;76;21025;-53
2021/08/07 12:26:56;;;;;;;13.60;5.55;;;35.20;46.10;;;;;;1886906;76;21009;-54
2021/08/07 12:29:27;;;;;;;8.83;5.20;;;35.20;46.10;;;;;;1886854;76;21008;-55
2021/08/07 12:32:01;;;;;;;14.93;5.15;;;35.30;46.00;;;;;;1886689;76;21049;-55
2021/08/07 12:34:35;;;;;;;10.63;4.70;;;35.30;46.10;;;;;;1885675;76;21094;-55
2021/08/07 12:37:10;;;;;;;;;;;35.40;46.00;;;;;;1889639;76;21070;-55
2021/08/07 12:39:52;;;;;;;6.47;4.58;;;35.30;45.60;;;;;;1886988;76;20089;-55
2021/08/07 12:42:27;;;;;;;7.15;4.33;;;35.30;46.00;;;;;;1886887;76;21009;-55
2021/08/07 12:45:13;;;;;;;10.85;5.03;;;35.30;46.10;;;;;;1887063;76;21020;-55
2021/08/07 12:47:40;;;;;;;;;;;35.30;46.00;;;;;;1889601;76;21463;-55
2021/08/07 12:50:12;;;;;;;9.10;5.28;;;35.30;45.80;;;;;;1886856;76;20097;-54
2021/08/07 12:52:52;;;;;;;13.98;5.92;;;35.30;45.80;;;;;;1886764;76;21067;-55
2021/08/07 12:55:22;;;;;;;13.15;4.95;;;35.40;45.70;;;;;;1886833;76;21572;-54
2021/08/07 12:58:10;;;;;;;7.67;4.70;;;35.30;44.60;;;;;;1886105;76;21103;-55
2021/08/07 13:00:39;;;;;;;11.97;5.25;;;35.20;44.90;;;;;;1886729;76;21005;-54